Date,TemperatureHighF,TemperatureAvgF,TemperatureLowF,DewpointHighF,DewpointAvgF,DewpointLowF,HumidityHigh,HumidityAvg,HumidityLow,PressureMaxIn,PressureMinIn,WindSpeedMaxMPH,WindSpeedAvgMPH,GustSpeedMaxMPH,PrecipitationSumIn
2013-2-1,23,19,13,14,10,7,84,68,56,30.20,29.62,13,2,14,0.00
2013-2-2,21,16,9,15,10,5,91,78,63,30.27,30.11,13,2,14,0.00
2013-2-3,25,16,8,16,-16,-100,91,80,57,30.12,29.84,7,1,0,0.00
2013-2-4,26,19,10,15,8,0,91,68,35,29.92,29.82,19,2,21,0.00
2013-2-8,22,21,18,20,19,16,93,92,90,30.09,29.99,25,5,25,0.00
2013-2-9,18,11,-5,16,4,-9,92,76,53,30.46,30.00,26,10,29,0.00
2013-2-10,24,6,-12,8,-2,-14,86,71,42,30.61,30.36,9,1,0,0.03
2013-2-11,37,28,14,34,23,6,95,80,52,30.36,29.69,9,1,12,0.18
2013-2-12,40,36,31,31,28,23,81,73,66,29.92,29.68,9,1,12,0.08
2013-2-13,37,30,19,26,23,16,90,75,60,29.92,29.81,6,0,0,0.00
2013-2-14,37,31,26,27,24,21,91,76,56,30.01,29.82,6,0,0,0.00
2013-2-15,32,31,30,24,24,24,78,76,75,29.98,29.96,3,0,0,0.00
2013-2-16,29,25,19,20,13,7,76,61,52,30.08,29.98,15,6,17,0.00
2013-2-17,19,14,11,8,5,0,85,66,50,29.99,29.76,22,9,23,0.00
2013-2-18,26,14,2,6,1,-2,83,59,32,30.24,29.96,16,2,17,0.00
2013-2-19,41,27,10,31,18,3,95,70,44,30.24,29.67,12,1,12,0.04
2013-2-20,32,27,24,31,20,14,95,77,56,29.85,29.67,13,1,14,0.23
2013-2-21,23,18,12,17,11,5,91,75,63,30.49,29.85,7,1,0,0.00
2013-2-22,33,24,10,25,20,8,92,84,67,30.53,30.31,7,1,0,0.02
2013-2-23,35,32,29,32,28,24,95,85,75,30.31,29.97,12,2,14,0.05
2013-2-24,35,32,28,34,31,26,96,95,90,30.03,29.85,11,1,14,0.10
2013-2-25,36,31,27,32,29,26,96,92,81,30.33,30.04,4,0,0,0.02
2013-2-26,41,33,30,34,30,28,97,90,71,30.40,30.16,4,0,0,0.00
2013-2-27,39,34,31,36,31,28,95,88,76,30.17,29.70,12,2,14,0.18
2013-2-28,45,36,31,37,32,30,96,88,66,29.70,29.62,14,2,17,0.07